Time;durP1;ratioP1;P1;durP2;ratioP2;P2;SDS_P1;SDS_P2;PMS_P1;PMS_P2;Temp;Humidity;BMP_temperature;BMP_pressure;BME280_temperature;BME280_humidity;BME280_pressure;Samples;Min_cycle;Max_cycle;Signal;HPM_P1;HPM_P2
2022/11/21 00:01:33;;;;;;;0.00;0.00;;;;;;;3.08;100.00;99609.38;6229805;22;19991;-74
2022/11/21 00:03:58;;;;;;;8.38;3.92;;;;;;;3.04;100.00;99608.19;6254442;22;20081;-73
2022/11/21 00:06:24;;;;;;;3.22;1.73;;;;;;;2.96;100.00;99607.53;6280635;22;20034;-73
2022/11/21 00:08:50;;;;;;;0.55;0.38;;;;;;;2.94;100.00;99603.41;6277858;22;20014;-72
2022/11/21 00:11:15;;;;;;;2.53;1.08;;;;;;;2.88;100.00;99604.38;6280825;22;20209;-72
2022/11/21 00:13:43;;;;;;;1.73;0.95;;;;;;;2.86;100.00;99595.66;6251736;22;20034;-74
2022/11/21 00:16:11;;;;;;;2.08;0.80;;;;;;;2.83;100.00;99596.94;6257432;22;20003;-72
2022/11/21 00:18:37;;;;;;;0.10;0.10;;;;;;;2.80;100.00;99581.22;6276007;22;20058;-73
2022/11/21 00:21:11;;;;;;;0.63;0.63;;;;;;;2.89;100.00;99590.63;6256185;22;20011;-74
2022/11/21 00:23:37;;;;;;;0.52;0.32;;;;;;;2.97;100.00;99587.53;6277606;22;20038;-74
2022/11/21 00:26:04;;;;;;;0.10;0.10;;;;;;;3.05;100.00;99583.69;6280679;22;20007;-74
2022/11/21 00:28:29;;;;;;;1.80;0.65;;;;;;;3.07;100.00;99580.75;6278530;22;20025;-73
2022/11/21 00:30:55;;;;;;;0.10;0.10;;;;;;;3.09;100.00;99574.00;6251482;22;20011;-74
2022/11/21 00:33:20;;;;;;;0.10;0.10;;;;;;;3.12;100.00;99568.13;6255484;22;20011;-73
2022/11/21 00:35:46;;;;;;;0.57;0.57;;;;;;;3.22;100.00;99555.91;6251153;22;20018;-74
2022/11/21 00:38:11;;;;;;;0.57;0.38;;;;;;;3.24;100.00;99543.81;6226786;22;20042;-74
2022/11/21 00:40:36;;;;;;;1.92;0.90;;;;;;;3.27;100.00;99537.09;6283651;22;20007;-74
2022/11/21 00:43:02;;;;;;;0.22;0.20;;;;;;;3.32;100.00;99534.50;6228085;22;19987;-73
2022/11/21 00:45:30;;;;;;;1.30;0.55;;;;;;;3.35;100.00;99527.81;6281856;22;20337;-73
2022/11/21 00:47:55;;;;;;;0.30;0.30;;;;;;;3.36;100.00;99519.47;6305760;22;20372;-74
2022/11/21 00:50:20;;;;;;;0.08;0.08;;;;;;;3.39;100.00;99518.13;6282425;22;19991;-75
2022/11/21 00:52:48;;;;;;;0.28;0.28;;;;;;;3.34;100.00;99499.94;6281311;22;20003;-76
2022/11/21 00:55:15;;;;;;;0.10;0.10;;;;;;;3.41;100.00;99503.31;6179960;22;20698;-77
2022/11/21 00:57:54;;;;;;;0.17;0.17;;;;;;;3.37;100.00;99491.34;5769698;22;20418;-76
2022/11/21 01:00:22;;;;;;;2.42;1.33;;;;;;;3.43;100.00;99497.69;5650651;22;20557;-75
2022/11/21 01:02:48;;;;;;;0.00;0.00;;;;;;;3.51;100.00;99494.59;6073980;22;20169;-74
2022/11/21 01:05:14;;;;;;;0.00;0.00;;;;;;;3.56;100.00;99510.09;6088436;22;20066;-74
2022/11/21 01:07:39;;;;;;;0.20;0.20;;;;;;;3.52;100.00;99496.25;6253139;22;20082;-73
2022/11/21 01:10:05;;;;;;;0.00;0.00;;;;;;;3.51;100.00;99502.69;6251278;22;20078;-74
2022/11/21 01:12:34;;;;;;;0.20;0.20;;;;;;;3.44;100.00;99496.63;6279352;22;20061;-74
2022/11/21 01:14:59;;;;;;;0.10;0.10;;;;;;;3.34;100.00;99491.03;6223741;22;20014;-72
2022/11/21 01:17:25;;;;;;;0.38;0.20;;;;;;;3.29;100.00;99492.56;6281941;22;20034;-71
2022/11/21 01:19:50;;;;;;;1.00;0.63;;;;;;;3.22;100.00;99481.06;6273385;22;20012;-73
2022/11/21 01:22:15;;;;;;;0.00;0.00;;;;;;;3.20;100.00;99472.41;6278528;22;19999;-73
2022/11/21 01:24:41;;;;;;;0.50;0.30;;;;;;;3.19;100.00;99464.53;6229952;22;20465;-73
2022/11/21 01:27:06;;;;;;;0.20;0.20;;;;;;;3.11;100.00;99461.16;6277088;22;20063;-72
2022/11/21 01:29:32;;;;;;;3.28;1.40;;;;;;;3.08;100.00;99458.94;6253707;22;20001;-73
2022/11/21 01:31:57;;;;;;;2.35;0.88;;;;;;;3.02;100.00;99454.47;6277630;22;20003;-72
2022/11/21 01:34:22;;;;;;;0.08;0.08;;;;;;;2.95;100.00;99449.22;6256238;22;20018;-72
2022/11/21 01:36:48;;;;;;;0.10;0.10;;;;;;;2.86;100.00;99439.03;6253160;22;20030;-73
2022/11/21 01:39:13;;;;;;;1.25;1.25;;;;;;;2.84;100.00;99436.56;6225713;22;20120;-73
2022/11/21 01:41:42;;;;;;;0.20;0.20;;;;;;;2.83;100.00;99432.22;6254147;22;20007;-73
2022/11/21 01:44:24;;;;;;;0.00;0.00;;;;;;;2.77;100.00;99430.47;6277828;22;19999;-72
2022/11/21 01:46:51;;;;;;;0.68;0.50;;;;;;;2.76;100.00;99434.22;6280173;22;20014;-72
2022/11/21 01:49:27;;;;;;;2.45;1.65;;;;;;;2.74;100.00;99414.75;6251574;22;20004;-72
2022/11/21 01:51:57;;;;;;;0.38;0.22;;;;;;;2.75;100.00;99416.41;6281337;22;20003;-71
2022/11/21 01:54:35;;;;;;;0.10;0.10;;;;;;;2.81;100.00;99418.16;6277870;22;19999;-72
2022/11/21 01:57:27;;;;;;;5.00;2.28;;;;;;;2.81;100.00;99411.94;6309180;22;19995;-74
2022/11/21 02:00:06;;;;;;;0.88;0.40;;;;;;;2.74;100.00;99403.97;6302826;22;20022;-74
2022/11/21 02:02:34;;;;;;;0.75;0.32;;;;;;;2.72;100.00;99398.00;6307580;22;20015;-75
2022/11/21 02:05:01;;;;;;;2.70;1.02;;;;;;;2.67;100.00;99387.09;6279074;22;20007;-74
2022/11/21 02:07:32;;;;;;;2.53;1.30;;;;;;;2.56;100.00;99378.78;6308816;22;20004;-74
2022/11/21 02:10:00;;;;;;;0.22;0.22;;;;;;;2.59;100.00;99375.59;6304898;22;20340;-74
2022/11/21 02:12:51;;;;;;;0.98;0.47;;;;;;;2.61;100.00;99381.59;6308920;22;20007;-74
2022/11/21 02:15:18;;;;;;;0.10;0.10;;;;;;;2.50;100.00;99360.84;6278460;22;20307;-74
2022/11/21 02:17:45;;;;;;;0.20;0.20;;;;;;;2.56;100.00;99373.38;6280395;22;20010;-75
2022/11/21 02:20:14;;;;;;;0.10;0.10;;;;;;;2.54;100.00;99364.72;6306041;22;20012;-73
2022/11/21 02:22:58;;;;;;;0.05;0.05;;;;;;;2.56;100.00;99370.69;6281260;22;20006;-74
2022/11/21 02:25:31;;;;;;;0.10;0.10;;;;;;;2.51;100.00;99354.41;6276884;22;19999;-73
2022/11/21 02:28:03;;;;;;;0.20;0.13;;;;;;;2.58;100.00;99346.97;6280529;22;20082;-73
2022/11/21 02:30:30;;;;;;;0.00;0.00;;;;;;;2.59;100.00;99343.22;6302631;22;20033;-74
2022/11/21 02:32:56;;;;;;;0.10;0.10;;;;;;;2.58;100.00;99329.97;6280481;22;20009;-74
2022/11/21 02:35:22;;;;;;;0.00;0.00;;;;;;;2.61;100.00;99324.91;6275920;22;20066;-73
2022/11/21 02:37:57;;;;;;;0.00;0.00;;;;;;;2.57;100.00;99321.06;6276915;22;20421;-75
2022/11/21 02:40:28;;;;;;;0.00;0.00;;;;;;;2.68;100.00;99318.53;6282017;22;20060;-72
2022/11/21 02:43:05;;;;;;;0.10;0.10;;;;;;;2.69;100.00;99301.28;6304275;22;19999;-73
2022/11/21 02:45:36;;;;;;;0.10;0.10;;;;;;;2.69;100.00;99290.50;6278185;22;20038;-73
2022/11/21 02:48:01;;;;;;;1.27;0.50;;;;;;;2.69;100.00;99277.81;6277642;22;20090;-75
2022/11/21 02:50:29;;;;;;;0.40;0.30;;;;;;;2.62;100.00;99272.53;6254132;22;20003;-73
2022/11/21 02:52:55;;;;;;;1.83;0.85;;;;;;;2.68;100.00;99269.97;6276795;22;20011;-72
2022/11/21 02:55:22;;;;;;;2.85;1.25;;;;;;;2.77;100.00;99263.09;6254087;22;20007;-73
2022/11/21 02:57:48;;;;;;;0.10;0.10;;;;;;;2.84;100.00;99254.84;6282576;22;20003;-74
2022/11/21 03:00:14;;;;;;;0.00;0.00;;;;;;;2.88;100.00;99253.31;6254742;22;20643;-74
2022/11/21 03:02:40;;;;;;;2.70;1.30;;;;;;;3.00;100.00;99250.53;6278651;22;20023;-74
2022/11/21 03:05:13;;;;;;;0.45;0.45;;;;;;;2.99;100.00;99232.69;6277605;22;20088;-73
2022/11/21 03:07:38;;;;;;;0.10;0.10;;;;;;;3.02;100.00;99219.47;6284177;22;20015;-74
2022/11/21 03:10:06;;;;;;;0.15;0.15;;;;;;;3.11;100.00;99209.09;6253521;22;20430;-73
2022/11/21 03:12:37;;;;;;;0.00;0.00;;;;;;;3.24;100.00;99230.38;6283742;22;20003;-73
2022/11/21 03:15:04;;;;;;;0.00;0.00;;;;;;;3.23;100.00;99215.22;6306282;22;20009;-74
2022/11/21 03:17:29;;;;;;;0.00;0.00;;;;;;;3.35;100.00;99217.84;6307301;22;19998;-74
2022/11/21 03:19:55;;;;;;;0.00;0.00;;;;;;;3.37;100.00;99207.59;6230025;22;20003;-75
2022/11/21 03:22:21;;;;;;;0.10;0.10;;;;;;;3.45;100.00;99198.25;6282751;22;20003;-73
2022/11/21 03:24:46;;;;;;;0.35;0.20;;;;;;;3.65;100.00;99206.63;6306500;22;20005;-74
2022/11/21 03:27:12;;;;;;;0.00;0.00;;;;;;;3.81;100.00;99196.00;6279530;22;20449;-74
2022/11/21 03:29:39;;;;;;;0.10;0.10;;;;;;;3.92;100.00;99181.53;6282720;22;20458;-74
2022/11/21 03:32:05;;;;;;;0.00;0.00;;;;;;;4.13;100.00;99173.66;6255035;22;20004;-74
2022/11/21 03:34:30;;;;;;;0.00;0.00;;;;;;;4.33;100.00;99170.34;6281905;22;20010;-73
2022/11/21 03:36:56;;;;;;;0.00;0.00;;;;;;;4.45;100.00;99151.25;6281750;22;20069;-74
2022/11/21 03:39:21;;;;;;;0.00;0.00;;;;;;;4.57;100.00;99146.50;6250980;22;20021;-73
2022/11/21 03:41:46;;;;;;;1.05;0.40;;;;;;;4.67;100.00;99124.91;6280988;22;20026;-74
2022/11/21 03:44:12;;;;;;;0.40;0.30;;;;;;;4.85;100.00;99118.25;6222657;22;20007;-74
2022/11/21 03:46:42;;;;;;;0.00;0.00;;;;;;;4.90;100.00;99103.94;6283278;22;20003;-74
2022/11/21 03:49:08;;;;;;;1.60;1.00;;;;;;;4.95;100.00;99093.16;6280865;22;20082;-74
2022/11/21 03:51:36;;;;;;;3.60;2.83;;;;;;;5.04;100.00;99082.63;6306844;22;20006;-74
2022/11/21 03:54:03;;;;;;;0.68;0.30;;;;;;;5.14;100.00;99089.97;6281649;22;20061;-74
2022/11/21 03:56:29;;;;;;;0.00;0.00;;;;;;;5.19;100.00;99088.13;6283609;22;20318;-74
2022/11/21 03:58:55;;;;;;;0.10;0.10;;;;;;;5.18;100.00;99078.38;6278050;22;20003;-74
2022/11/21 04:01:21;;;;;;;0.20;0.13;;;;;;;5.09;100.00;99062.88;6279401;22;20018;-74
2022/11/21 04:03:47;;;;;;;0.20;0.13;;;;;;;5.07;100.00;99063.94;6281346;22;20065;-74
2022/11/21 04:06:17;;;;;;;0.08;0.08;;;;;;;5.06;100.00;99048.75;6303291;22;20008;-74
2022/11/21 04:08:45;;;;;;;0.10;0.10;;;;;;;5.06;100.00;99037.09;6280673;22;20022;-75
2022/11/21 04:11:10;;;;;;;0.00;0.00;;;;;;;4.99;100.00;99037.31;6276686;22;20093;-74
2022/11/21 04:13:37;;;;;;;0.10;0.10;;;;;;;4.90;100.00;99017.25;6281320;22;20094;-73
2022/11/21 04:16:11;;;;;;;0.38;0.30;;;;;;;4.88;100.00;99014.81;6280825;22;20007;-75
2022/11/21 04:18:39;;;;;;;;;;;;;;;4.92;100.00;99020.53;6253830;22;20007;-74
2022/11/21 04:21:08;;;;;;;0.20;0.20;;;;;;;4.80;100.00;99006.34;6254150;22;19915;-74
2022/11/21 04:23:33;;;;;;;0.30;0.22;;;;;;;4.78;100.00;99020.16;6277372;22;20006;-74
2022/11/21 04:26:02;;;;;;;0.10;0.10;;;;;;;4.74;100.00;99023.66;6305997;22;20003;-74
2022/11/21 04:28:27;;;;;;;0.13;0.13;;;;;;;4.55;100.00;98991.59;6305854;22;19998;-74
2022/11/21 04:30:53;;;;;;;4.47;4.28;;;;;;;4.65;100.00;99009.81;6279530;22;20056;-74
2022/11/21 04:33:18;;;;;;;0.10;0.10;;;;;;;4.63;100.00;99007.34;6278300;22;20007;-74
2022/11/21 04:35:48;;;;;;;0.10;0.10;;;;;;;4.71;100.00;98998.72;6253546;22;20018;-73
2022/11/21 04:38:15;;;;;;;0.22;0.13;;;;;;;4.77;100.00;98963.56;6279382;22;20003;-74
2022/11/21 04:40:45;;;;;;;0.10;0.10;;;;;;;4.84;100.00;98953.31;6307256;22;20006;-75
2022/11/21 04:43:11;;;;;;;0.00;0.00;;;;;;;4.82;100.00;98942.72;6280463;22;20091;-75
2022/11/21 04:45:36;;;;;;;0.40;0.40;;;;;;;4.90;100.00;98941.41;6306491;22;20086;-73
2022/11/21 04:48:02;;;;;;;0.00;0.00;;;;;;;4.96;100.00;98920.56;6280316;22;20334;-76
2022/11/21 04:50:27;;;;;;;0.00;0.00;;;;;;;5.05;100.00;98919.78;6253589;22;19995;-75
2022/11/21 04:52:55;;;;;;;0.00;0.00;;;;;;;5.12;100.00;98908.69;6282134;22;19999;-74
2022/11/21 04:55:23;;;;;;;0.20;0.20;;;;;;;5.16;100.00;98896.22;6278120;22;20329;-74
2022/11/21 04:57:52;;;;;;;1.08;0.95;;;;;;;5.02;100.00;98885.09;6307228;22;20006;-74
2022/11/21 05:00:17;;;;;;;3.30;1.65;;;;;;;4.93;100.00;98875.84;6282115;22;20009;-74
2022/11/21 05:02:46;;;;;;;1.85;1.45;;;;;;;4.89;100.00;98874.75;6276388;22;20098;-75
2022/11/21 05:05:14;;;;;;;0.10;0.10;;;;;;;4.92;100.00;98857.16;6280717;22;20003;-73
2022/11/21 05:07:40;;;;;;;0.00;0.00;;;;;;;4.94;100.00;98860.44;6249068;22;20007;-74
2022/11/21 05:10:08;;;;;;;0.00;0.00;;;;;;;5.10;100.00;98866.69;6279542;22;20311;-73
2022/11/21 05:15:18;;;;;;;2.05;0.82;;;;;;;5.25;100.00;98851.25;6285059;22;20076;-73
2022/11/21 05:17:51;;;;;;;4.95;1.75;;;;;;;5.28;100.00;98828.22;6303141;22;19999;-74
2022/11/21 05:20:17;;;;;;;1.15;0.45;;;;;;;5.46;100.00;98842.31;6257830;22;20090;-73
2022/11/21 05:22:44;;;;;;;0.00;0.00;;;;;;;5.49;100.00;98818.22;6276159;22;20090;-73
2022/11/21 05:25:14;;;;;;;4.07;3.85;;;;;;;5.59;100.00;98817.38;6307767;22;20003;-74
2022/11/21 05:27:40;;;;;;;0.20;0.10;;;;;;;5.60;100.00;98810.88;6254669;22;20072;-73
2022/11/21 05:30:09;;;;;;;0.00;0.00;;;;;;;5.61;100.00;98798.94;6279764;22;20373;-73
2022/11/21 05:32:37;;;;;;;1.80;1.10;;;;;;;5.66;100.00;98807.06;6309864;22;20003;-73
2022/11/21 05:35:02;;;;;;;0.10;0.10;;;;;;;5.70;100.00;98791.88;6276094;22;20003;-73
2022/11/21 05:37:28;;;;;;;0.13;0.10;;;;;;;5.73;100.00;98780.47;6283564;22;20011;-76
2022/11/21 05:39:53;;;;;;;0.10;0.10;;;;;;;5.70;100.00;98753.91;6303080;22;20003;-74
2022/11/21 05:43:44;;;;;;;0.15;0.15;;;;;;;5.70;100.00;98748.47;6282822;22;20372;-74
2022/11/21 05:45:04;;;;;;;0.00;0.00;;;;;;;5.71;100.00;98750.09;6279947;22;20007;-74
2022/11/21 05:47:30;;;;;;;0.00;0.00;;;;;;;5.65;100.00;98740.38;6281146;22;20011;-74
2022/11/21 05:49:57;;;;;;;0.00;0.00;;;;;;;5.62;100.00;98730.03;6305454;22;20037;-74
2022/11/21 05:52:26;;;;;;;0.85;0.30;;;;;;;5.80;100.00;98741.38;6304252;22;20049;-73
2022/11/21 05:55:09;;;;;;;0.65;0.65;;;;;;;5.71;100.00;98722.16;6273239;22;20061;-74
2022/11/21 05:57:44;;;;;;;0.00;0.00;;;;;;;5.75;100.00;98707.78;6279688;22;20201;-73
2022/11/21 06:00:09;;;;;;;;;;;;;;;5.87;100.00;98717.50;6308474;22;20092;-74
2022/11/21 06:05:19;;;;;;;0.00;0.00;;;;;;;5.91;100.00;98707.72;6262249;22;20037;-74
2022/11/21 06:07:44;;;;;;;0.10;0.10;;;;;;;5.84;100.00;98682.78;6278672;22;20700;-74
2022/11/21 06:10:09;;;;;;;0.85;0.85;;;;;;;5.90;100.00;98684.41;6309573;22;20037;-74
2022/11/21 06:12:35;;;;;;;0.85;0.47;;;;;;;5.92;100.00;98679.50;6306619;22;20082;-73
2022/11/21 06:15:00;;;;;;;0.00;0.00;;;;;;;5.85;100.00;98662.72;6281760;22;20003;-74
2022/11/21 06:17:26;;;;;;;0.10;0.10;;;;;;;5.94;100.00;98658.31;6256891;22;20011;-73
2022/11/21 06:19:51;;;;;;;0.00;0.00;;;;;;;5.97;100.00;98627.94;6281019;22;20064;-73
2022/11/21 06:22:17;;;;;;;0.00;0.00;;;;;;;6.10;100.00;98649.06;6283022;22;20010;-73
2022/11/21 06:24:42;;;;;;;0.00;0.00;;;;;;;6.19;100.00;98648.47;6281870;22;20060;-74
2022/11/21 06:27:08;;;;;;;0.00;0.00;;;;;;;6.27;100.00;98637.81;6230753;22;20448;-74
2022/11/21 06:29:33;;;;;;;0.00;0.00;;;;;;;6.42;100.00;98620.63;6229838;22;20076;-74
2022/11/21 06:32:01;;;;;;;0.10;0.10;;;;;;;6.57;100.00;98624.31;6256904;22;20014;-74
2022/11/21 06:34:28;;;;;;;0.00;0.00;;;;;;;6.56;100.00;98604.50;6231477;22;20382;-74
2022/11/21 06:36:53;;;;;;;1.05;0.98;;;;;;;6.60;100.00;98585.72;6310283;22;20033;-74
2022/11/21 06:39:19;;;;;;;0.90;0.57;;;;;;;6.74;100.00;98602.19;6310547;22;20410;-72
2022/11/21 06:41:53;;;;;;;0.10;0.10;;;;;;;6.76;100.00;98589.94;6228436;22;20007;-74
2022/11/21 06:44:19;;;;;;;0.08;0.08;;;;;;;6.91;100.00;98590.91;6257529;22;20011;-74
2022/11/21 06:46:44;;;;;;;0.00;0.00;;;;;;;7.01;100.00;98589.97;6280025;22;20405;-73
2022/11/21 06:49:10;;;;;;;0.00;0.00;;;;;;;6.99;100.00;98566.63;6257500;22;20038;-73
2022/11/21 06:51:36;;;;;;;0.80;0.30;;;;;;;7.05;100.00;98563.84;6254021;22;20017;-74
2022/11/21 06:54:06;;;;;;;1.45;0.98;;;;;;;7.14;100.00;98559.38;6254151;22;20017;-74
2022/11/21 06:56:32;;;;;;;0.00;0.00;;;;;;;7.18;100.00;98527.00;6312359;22;20025;-73
2022/11/21 06:59:03;;;;;;;0.50;0.50;;;;;;;7.11;100.00;98525.44;6023270;22;20706;-73
2022/11/21 07:01:48;;;;;;;0.00;0.00;;;;;;;7.11;100.00;98528.16;5581105;22;20079;-77
2022/11/21 07:04:20;;;;;;;0.00;0.00;;;;;;;7.13;100.00;98517.00;5489078;22;20581;-74
2022/11/21 07:06:53;;;;;;;0.03;0.03;;;;;;;7.20;100.00;98505.75;6221680;22;20010;-74
2022/11/21 07:09:18;;;;;;;0.00;0.00;;;;;;;7.43;100.00;98504.13;6246094;22;20079;-74
2022/11/21 07:11:44;;;;;;;1.27;0.47;;;;;;;7.37;100.00;98476.19;6251523;22;20007;-75
2022/11/21 07:14:10;;;;;;;0.00;0.00;;;;;;;7.46;100.00;98490.75;6224379;22;20127;-75
2022/11/21 07:16:35;;;;;;;0.00;0.00;;;;;;;7.35;100.00;98481.13;6222859;22;20086;-74
2022/11/21 07:19:01;;;;;;;3.03;2.90;;;;;;;7.40;100.00;98478.31;6222894;22;20292;-77
2022/11/21 07:21:26;;;;;;;0.52;0.52;;;;;;;7.41;100.00;98471.78;6248828;22;20022;-76
2022/11/21 07:23:52;;;;;;;2.40;0.93;;;;;;;7.50;100.00;98459.16;6250366;22;20003;-76
2022/11/21 07:26:17;;;;;;;0.00;0.00;;;;;;;7.58;100.00;98454.13;6196518;22;20018;-75
2022/11/21 07:28:43;;;;;;;0.32;0.32;;;;;;;7.46;100.00;98432.81;6199937;22;20103;-75
2022/11/21 07:31:09;;;;;;;1.25;0.60;;;;;;;7.59;100.00;98442.16;6275044;22;20110;-75
2022/11/21 07:33:36;;;;;;;1.65;1.55;;;;;;;7.55;100.00;98443.84;6248876;22;20090;-75
2022/11/21 07:36:10;;;;;;;20.38;16.27;;;;;;;7.55;100.00;98433.78;6247118;22;20061;-74
2022/11/21 07:38:35;;;;;;;0.00;0.00;;;;;;;7.71;100.00;98445.25;6224218;22;20090;-75
2022/11/21 07:41:04;;;;;;;3.13;1.10;;;;;;;7.69;100.00;98420.25;6245213;22;20058;-74
2022/11/21 07:43:29;;;;;;;0.20;0.20;;;;;;;7.83;100.00;98421.09;6246925;22;20098;-74
2022/11/21 07:45:55;;;;;;;1.40;0.50;;;;;;;7.88;100.00;98411.25;6247860;22;20008;-74
2022/11/21 07:48:29;;;;;;;0.17;0.10;;;;;;;7.75;100.00;98397.28;6272749;22;20061;-75
2022/11/21 07:51:03;;;;;;;;;;;;;;;7.83;100.00;98420.31;6201457;22;20033;-74
2022/11/21 07:53:31;;;;;;;0.10;0.10;;;;;;;7.79;100.00;98403.75;6277903;22;19903;-75
2022/11/21 07:55:59;;;;;;;0.30;0.20;;;;;;;7.77;100.00;98389.66;6245425;22;20031;-74
2022/11/21 07:58:25;;;;;;;0.20;0.20;;;;;;;7.80;100.00;98394.50;6224501;22;20496;-74
2022/11/21 08:00:52;;;;;;;0.10;0.10;;;;;;;7.84;100.00;98394.69;6221707;22;20015;-74
2022/11/21 08:03:18;;;;;;;0.10;0.10;;;;;;;7.75;100.00;98375.53;6201111;22;20028;-75
2022/11/21 08:05:51;;;;;;;0.03;0.03;;;;;;;7.88;100.00;98378.59;6220929;22;20094;-76
2022/11/21 08:08:16;;;;;;;0.00;0.00;;;;;;;7.91;100.00;98367.13;6274091;22;20090;-75
2022/11/21 08:10:44;;;;;;;0.47;0.20;;;;;;;8.09;100.00;98352.63;6197467;22;20373;-76
2022/11/21 08:13:11;;;;;;;0.00;0.00;;;;;;;8.14;100.00;98349.81;6245652;22;20378;-76
2022/11/21 08:16:34;;;;;;;0.00;0.00;;;;;;;8.11;100.00;98344.97;6220305;22;20007;-79
2022/11/21 08:19:05;;;;;;;1.65;1.17;;;;;;;7.94;100.00;98329.19;6215689;23;20013;-76
2022/11/21 08:21:49;;;;;;;;;;;;;;;;;;;;;
2022/11/21 08:24:24;;;;;;;0.00;0.00;;;;;;;7.80;100.00;98318.31;6214183;23;20043;-78
2022/11/21 08:27:23;;;;;;;;;;;;;;;;;;;;;
2022/11/21 08:30:12;;;;;;;1.48;0.90;;;;;;;7.74;100.00;98281.41;6217318;23;20016;-80
2022/11/21 08:36:40;;;;;;;2.33;0.95;;;;;;;7.82;100.00;98283.44;6123960;23;20005;-79
2022/11/21 08:39:12;;;;;;;0.00;0.00;;;;;;;7.75;100.00;98260.44;6123804;23;20009;-78
2022/11/21 08:44:49;;;;;;;0.10;0.10;;;;;;;7.80;100.00;98258.44;6217470;23;20015;-78
2022/11/21 08:47:46;;;;;;;0.20;0.20;;;;;;;7.69;100.00;98235.25;6178744;23;20000;-79
2022/11/21 08:51:53;;;;;;;;;;;;;;;;;;;;;
2022/11/21 08:53:40;;;;;;;3.83;3.53;;;;;;;7.85;100.00;98231.13;6252785;22;20350;-77
2022/11/21 09:00:49;;;;;;;0.00;0.00;;;;;;;7.81;100.00;98211.09;6234468;22;20007;-78
2022/11/21 09:03:39;;;;;;;0.00;0.00;;;;;;;7.82;100.00;98207.25;6274334;22;20388;-80
2022/11/21 09:07:00;;;;;;;;;;;;;;;;;;;;;
2022/11/21 09:09:26;;;;;;;0.10;0.10;;;;;;;7.69;100.00;98165.34;6308133;22;20049;-75
2022/11/21 09:11:54;;;;;;;0.00;0.00;;;;;;;7.94;100.00;98176.00;6305943;22;20019;-75
2022/11/21 09:19:58;;;;;;;0.00;0.00;;;;;;;7.94;100.00;98124.28;6285006;22;20046;-74
2022/11/21 09:22:26;;;;;;;0.00;0.00;;;;;;;8.00;100.00;98136.69;6277894;22;20053;-74
2022/11/21 09:24:52;;;;;;;0.00;0.00;;;;;;;7.98;100.00;98111.69;6274108;22;19999;-75
2022/11/21 09:27:17;;;;;;;0.80;0.57;;;;;;;8.00;100.00;98104.03;6225164;22;20003;-73
2022/11/21 09:29:43;;;;;;;0.10;0.10;;;;;;;8.06;100.00;98097.38;6273200;22;20045;-74
2022/11/21 09:32:11;;;;;;;0.13;0.13;;;;;;;8.07;100.00;98092.72;6277616;22;20035;-73
2022/11/21 09:34:40;;;;;;;0.10;0.10;;;;;;;8.03;100.00;98076.19;5539238;22;20010;-73
2022/11/21 09:37:05;;;;;;;0.00;0.00;;;;;;;8.03;100.00;98062.56;6279883;22;20060;-75
2022/11/21 09:39:31;;;;;;;0.00;0.00;;;;;;;8.02;100.00;98064.50;5675061;22;20004;-75
2022/11/21 09:42:26;;;;;;;0.05;0.05;;;;;;;8.00;100.00;98044.13;6278284;22;20007;-74
2022/11/21 09:44:51;;;;;;;;;;;;;;;8.13;100.00;98037.88;6306519;22;20029;-74
2022/11/21 09:47:27;;;;;;;0.00;0.00;;;;;;;8.17;100.00;98038.84;6304770;22;20203;-75
2022/11/21 09:50:02;;;;;;;0.75;0.75;;;;;;;8.14;100.00;98006.00;6278018;22;20232;-74
2022/11/21 09:52:35;;;;;;;0.80;0.77;;;;;;;8.21;100.00;97996.28;6302903;22;20009;-75
2022/11/21 09:55:08;;;;;;;0.00;0.00;;;;;;;8.23;100.00;97982.34;6282821;22;20003;-75
2022/11/21 09:57:36;;;;;;;0.00;0.00;;;;;;;8.23;100.00;97981.56;6277608;22;20007;-74
2022/11/21 10:00:15;;;;;;;1.75;0.90;;;;;;;8.16;100.00;97961.03;6234489;22;20053;-74
2022/11/21 10:02:40;;;;;;;3.05;2.78;;;;;;;8.20;100.00;97961.19;6276378;22;20056;-74
2022/11/21 10:05:12;;;;;;;0.95;0.82;;;;;;;8.14;100.00;97925.13;5907055;22;20716;-74
2022/11/21 10:07:38;;;;;;;0.00;0.00;;;;;;;8.19;100.00;97926.91;5821077;22;20050;-74
2022/11/21 10:10:13;;;;;;;0.20;0.20;;;;;;;8.30;100.00;97916.59;5704064;22;20658;-74
2022/11/21 10:12:57;;;;;;;0.00;0.00;;;;;;;8.26;100.00;97904.69;5900811;22;20587;-72
2022/11/21 10:15:37;;;;;;;0.00;0.00;;;;;;;8.24;100.00;97890.59;5857913;22;20018;-75
2022/11/21 10:18:20;;;;;;;0.00;0.00;;;;;;;8.34;100.00;97893.84;6280169;22;20003;-75
2022/11/21 10:21:13;;;;;;;0.00;0.00;;;;;;;8.34;100.00;97866.63;6268086;22;20396;-75
2022/11/21 10:24:14;;;;;;;0.10;0.10;;;;;;;8.42;100.00;97870.50;6278532;22;20065;-75
2022/11/21 10:27:09;;;;;;;0.00;0.00;;;;;;;8.44;100.00;97862.00;6301899;22;19992;-74
2022/11/21 10:29:53;;;;;;;0.00;0.00;;;;;;;8.48;100.00;97842.03;6282031;22;19999;-75
2022/11/21 10:32:27;;;;;;;0.45;0.20;;;;;;;8.37;100.00;97819.69;6282852;22;20011;-76
2022/11/21 10:35:16;;;;;;;0.00;0.00;;;;;;;8.31;100.00;97803.81;6275728;22;20006;-75
2022/11/21 10:38:02;;;;;;;0.73;0.55;;;;;;;8.50;100.00;97812.56;6301707;22;20004;-73
2022/11/21 10:40:44;;;;;;;4.10;1.13;;;;;;;8.58;100.00;97799.28;6276548;22;20491;-74
2022/11/21 10:46:07;;;;;;;1.63;1.52;;;;;;;8.49;100.00;97767.38;6305347;22;20061;-73
2022/11/21 10:48:35;;;;;;;3.70;3.00;;;;;;;8.47;100.00;97764.19;6300393;22;20057;-71
2022/11/21 10:51:32;;;;;;;1.30;0.85;;;;;;;8.58;100.00;97758.44;6301212;22;20003;-73
2022/11/21 10:56:50;;;;;;;0.00;0.00;;;;;;;8.61;100.00;97712.28;6302288;22;20710;-73
2022/11/21 10:59:26;;;;;;;2.83;1.55;;;;;;;8.70;100.00;97685.03;6275416;22;20011;-73
2022/11/21 11:02:00;;;;;;;1.83;0.70;;;;;;;8.81;100.00;97689.03;6303086;22;20034;-73
2022/11/21 11:04:27;;;;;;;0.00;0.00;;;;;;;8.88;100.00;97670.28;6274663;22;20027;-74
2022/11/21 11:06:53;;;;;;;0.10;0.10;;;;;;;8.97;100.00;97666.75;6278321;22;19999;-74
2022/11/21 11:09:32;;;;;;;0.00;0.00;;;;;;;8.98;100.00;97647.34;6250047;22;20014;-73
2022/11/21 11:12:22;;;;;;;0.00;0.00;;;;;;;9.07;100.00;97639.94;6276453;22;20006;-74
2022/11/21 11:14:54;;;;;;;2.13;0.75;;;;;;;9.24;100.00;97639.13;6304542;22;20100;-73
2022/11/21 11:17:31;;;;;;;0.00;0.00;;;;;;;9.31;100.00;97640.53;6305740;22;19999;-73
2022/11/21 11:20:04;;;;;;;0.00;0.00;;;;;;;9.44;100.00;97623.16;6304076;22;19999;-72
2022/11/21 11:22:30;;;;;;;0.00;0.00;;;;;;;9.61;100.00;97604.00;6279418;22;20090;-72
2022/11/21 11:24:57;;;;;;;0.00;0.00;;;;;;;9.66;100.00;97580.38;5302995;22;20827;-72
2022/11/21 11:27:27;;;;;;;0.00;0.00;;;;;;;9.86;100.00;97587.81;5196427;22;20576;-73
2022/11/21 11:29:55;;;;;;;0.00;0.00;;;;;;;9.91;100.00;97590.31;6266181;22;20078;-74
2022/11/21 11:32:21;;;;;;;0.05;0.05;;;;;;;9.63;100.00;97584.56;5210772;22;21065;-73
2022/11/21 11:34:53;;;;;;;0.00;0.00;;;;;;;9.54;100.00;97587.34;5074804;22;20585;-72
2022/11/21 11:37:50;;;;;;;0.20;0.20;;;;;;;9.36;100.00;97585.81;5569527;22;20364;-73
2022/11/21 11:40:48;;;;;;;0.10;0.10;;;;;;;9.14;100.00;97562.31;6278414;22;20004;-72
2022/11/21 11:50:13;;;;;;;1.95;1.85;;;;;;;8.87;100.00;97516.06;6035526;22;20730;-73
2022/11/21 11:53:10;;;;;;;0.00;0.00;;;;;;;8.80;100.00;97510.31;6304457;22;20033;-74
2022/11/21 11:55:40;;;;;;;0.10;0.10;;;;;;;8.69;100.00;97493.53;6278692;22;19999;-74
2022/11/21 11:58:23;;;;;;;0.45;0.20;;;;;;;8.61;100.00;97469.03;6305807;22;20003;-73
2022/11/21 12:00:58;;;;;;;0.10;0.10;;;;;;;8.48;100.00;97466.19;6306398;22;19999;-73
2022/11/21 12:03:50;;;;;;;1.60;0.68;;;;;;;8.37;100.00;97451.31;6282015;22;20026;-74
2022/11/21 12:06:26;;;;;;;0.00;0.00;;;;;;;8.16;100.00;97438.38;6113733;22;20029;-75
2022/11/21 12:09:02;;;;;;;0.00;0.00;;;;;;;7.99;100.00;97411.19;4999591;22;20565;-72
2022/11/21 12:12:10;;;;;;;0.65;0.30;;;;;;;8.03;100.00;97434.72;5000249;22;20537;-74
2022/11/21 12:18:08;;;;;;;0.10;0.10;;;;;;;7.98;100.00;97409.59;5493220;22;20342;-72
2022/11/21 12:21:02;;;;;;;0.10;0.10;;;;;;;8.21;100.00;97407.47;5512974;22;20564;-73
2022/11/21 12:23:53;;;;;;;0.47;0.47;;;;;;;8.35;100.00;97401.81;6189833;22;20084;-74
2022/11/21 12:26:49;;;;;;;0.00;0.00;;;;;;;8.24;100.00;97373.34;6276731;22;20050;-74
2022/11/21 12:29:36;;;;;;;1.85;1.17;;;;;;;8.17;100.00;97369.19;6300561;22;20014;-73
2022/11/21 12:32:37;;;;;;;0.00;0.00;;;;;;;8.07;100.00;97353.19;6279472;22;19995;-73
2022/11/21 12:35:27;;;;;;;0.00;0.00;;;;;;;8.01;100.00;97359.94;6281423;22;20158;-75
2022/11/21 12:38:26;;;;;;;0.00;0.00;;;;;;;7.94;100.00;97351.47;6279117;22;20037;-76